Time,TemperatureF,DewpointF,PressureIn,WindDirection,WindDirectionDegrees,WindSpeedMPH,WindSpeedGustMPH,Humidity,HourlyPrecipIn,Conditions,Clouds,dailyrainin,SoftwareType,DateUTC
2013-08-03 00:03:00,52.9,52.1,29.40,North,0,0.0,-999.0,97,0.00,,,-99.99,,2013-08-03 08:03:00,
2013-08-03 00:08:00,52.9,52.1,29.40,North,0,0.0,-999.0,97,0.00,,,-99.99,,2013-08-03 08:08:00,
2013-08-03 00:13:00,52.9,52.1,29.40,North,0,0.0,-999.0,97,0.00,,,-99.99,,2013-08-03 08:13:00,
2013-08-03 00:18:00,53.0,52.1,29.40,North,0,0.0,-999.0,96,0.00,,,-99.99,,2013-08-03 08:18:00,
2013-08-03 00:23:00,52.8,51.9,29.40,North,0,0.0,-999.0,96,0.00,,,-99.99,,2013-08-03 08:23:00,
2013-08-03 00:28:00,52.9,52.0,29.40,North,0,0.0,-999.0,96,0.00,,,-99.99,,2013-08-03 08:28:00,
2013-08-03 00:33:00,52.7,51.8,29.40,North,0,0.0,-999.0,96,0.00,,,-99.99,,2013-08-03 08:33:00,
2013-08-03 00:38:00,52.8,51.9,29.40,North,0,0.0,-999.0,96,0.00,,,-99.99,,2013-08-03 08:38:00,
2013-08-03 00:43:00,52.9,52.0,29.40,North,0,0.0,-999.0,96,0.00,,,-99.99,,2013-08-03 08:43:00,
2013-08-03 00:48:00,52.9,51.9,29.40,North,0,0.0,-999.0,96,0.00,,,-99.99,,2013-08-03 08:48:00,
2013-08-03 00:53:00,53.0,52.1,29.40,North,0,0.0,-999.0,96,0.00,,,-99.99,,2013-08-03 08:53:00,
2013-08-03 00:58:00,52.9,51.9,29.40,North,0,0.0,-999.0,96,0.00,,,-99.99,,2013-08-03 08:58:00,
2013-08-03 01:03:00,52.7,51.7,29.42,North,0,0.0,-999.0,96,0.00,,,-99.99,,2013-08-03 09:03:00,
2013-08-03 01:08:00,53.0,52.0,29.42,North,0,0.0,-999.0,96,0.00,,,-99.99,,2013-08-03 09:08:00,
2013-08-03 01:13:00,53.2,52.3,29.42,North,0,0.0,-999.0,96,0.00,,,-99.99,,2013-08-03 09:13:00,
2013-08-03 01:18:00,53.1,52.0,29.42,North,0,0.0,-999.0,96,0.00,,,-99.99,,2013-08-03 09:18:00,
2013-08-03 01:23:00,52.9,51.8,29.42,North,0,0.0,-999.0,95,0.00,,,-99.99,,2013-08-03 09:23:00,
2013-08-03 01:28:00,52.9,51.8,29.42,North,0,0.0,-999.0,95,0.00,,,-99.99,,2013-08-03 09:28:00,
2013-08-03 01:33:00,52.9,51.8,29.42,North,0,0.0,-999.0,95,0.00,,,-99.99,,2013-08-03 09:33:00,
2013-08-03 01:38:00,52.7,51.6,29.42,North,0,0.0,-999.0,95,0.00,,,-99.99,,2013-08-03 09:38:00,
2013-08-03 01:43:00,53.0,51.8,29.42,North,0,0.0,-999.0,95,0.00,,,-99.99,,2013-08-03 09:43:00,
2013-08-03 01:48:00,52.9,51.7,29.42,North,0,0.0,-999.0,95,0.00,,,-99.99,,2013-08-03 09:48:00,
2013-08-03 01:53:00,52.8,51.7,29.42,North,0,0.0,-999.0,95,0.00,,,-99.99,,2013-08-03 09:53:00,
2013-08-03 01:58:00,52.9,51.7,29.42,North,0,0.0,-999.0,95,0.00,,,-99.99,,2013-08-03 09:58:00,
2013-08-03 02:03:00,52.7,51.5,29.42,North,0,0.0,-999.0,95,0.00,,,-99.99,,2013-08-03 10:03:00,
2013-08-03 02:08:00,52.4,51.4,29.42,North,0,0.0,-999.0,96,0.00,,,-99.99,,2013-08-03 10:08:00,
2013-08-03 02:13:00,52.6,51.5,29.42,North,0,0.0,-999.0,95,0.00,,,-99.99,,2013-08-03 10:13:00,
2013-08-03 02:18:00,52.5,51.3,29.42,North,0,0.0,-999.0,95,0.00,,,-99.99,,2013-08-03 10:18:00,
2013-08-03 02:23:00,52.3,51.1,29.42,North,0,0.0,-999.0,95,0.00,,,-99.99,,2013-08-03 10:23:00,
2013-08-03 02:28:00,52.4,51.0,29.42,North,0,0.0,-999.0,95,0.01,,,-99.99,,2013-08-03 10:28:00,
2013-08-03 02:33:00,52.8,51.2,29.42,North,0,0.0,-999.0,94,0.01,,,-99.99,,2013-08-03 10:33:00,
2013-08-03 02:38:00,52.6,50.8,29.42,North,0,0.0,-999.0,93,0.01,,,-99.99,,2013-08-03 10:38:00,
2013-08-03 02:44:00,52.6,50.8,29.42,North,0,0.0,-999.0,93,0.01,,,-99.99,,2013-08-03 10:44:00,
2013-08-03 02:49:00,52.7,50.9,29.42,North,0,0.0,-999.0,93,0.01,,,-99.99,,2013-08-03 10:49:00,
2013-08-03 02:54:00,52.8,51.0,29.42,North,0,0.0,-999.0,93,0.01,,,-99.99,,2013-08-03 10:54:00,
2013-08-03 02:59:00,52.8,51.0,29.42,North,0,0.0,-999.0,93,0.01,,,-99.99,,2013-08-03 10:59:00,
2013-08-03 03:04:00,52.9,51.2,29.42,North,0,0.0,-999.0,94,0.00,,,-99.99,,2013-08-03 11:04:00,
2013-08-03 03:09:00,52.8,51.1,29.42,North,0,0.0,-999.0,94,0.00,,,-99.99,,2013-08-03 11:09:00,
2013-08-03 03:14:00,52.8,51.2,29.42,North,0,0.0,-999.0,94,0.00,,,-99.99,,2013-08-03 11:14:00,
2013-08-03 03:19:00,52.6,51.1,29.42,North,0,0.0,-999.0,94,0.00,,,-99.99,,2013-08-03 11:19:00,
2013-08-03 03:24:00,52.8,51.3,29.42,North,0,0.0,-999.0,94,0.00,,,-99.99,,2013-08-03 11:24:00,
2013-08-03 03:29:00,52.8,51.3,29.42,North,0,0.0,-999.0,94,0.00,,,-99.99,,2013-08-03 11:29:00,
2013-08-03 03:34:00,52.8,51.2,29.42,North,0,0.0,-999.0,94,0.00,,,-99.99,,2013-08-03 11:34:00,
2013-08-03 03:39:00,52.9,51.4,29.42,North,0,0.0,-999.0,94,0.00,,,-99.99,,2013-08-03 11:39:00,
2013-08-03 03:44:00,52.9,51.2,29.42,North,0,0.0,-999.0,94,0.00,,,-99.99,,2013-08-03 11:44:00,
2013-08-03 03:49:00,52.8,51.1,29.42,North,0,0.0,-999.0,93,0.00,,,-99.99,,2013-08-03 11:49:00,
2013-08-03 03:54:00,52.9,51.3,29.42,North,0,0.0,-999.0,94,0.00,,,-99.99,,2013-08-03 11:54:00,
2013-08-03 03:59:00,52.9,51.3,29.42,North,0,0.0,-999.0,94,0.00,,,-99.99,,2013-08-03 11:59:00,
2013-08-03 04:04:00,52.6,51.0,29.44,North,0,0.0,-999.0,94,0.00,,,-99.99,,2013-08-03 12:04:00,
2013-08-03 04:09:00,52.6,51.0,29.44,North,0,0.0,-999.0,94,0.00,,,-99.99,,2013-08-03 12:09:00,
2013-08-03 04:14:00,52.6,51.2,29.44,North,0,0.0,-999.0,94,0.00,,,-99.99,,2013-08-03 12:14:00,
2013-08-03 04:19:00,52.6,51.1,29.44,North,0,0.0,-999.0,94,0.00,,,-99.99,,2013-08-03 12:19:00,
2013-08-03 04:20:00,52.6,51.2,29.44,North,0,0.0,-999.0,94,0.00,,,-99.99,,2013-08-03 12:20:00,
2013-08-03 04:25:00,52.8,51.4,29.44,North,0,0.0,-999.0,94,0.00,,,-99.99,,2013-08-03 12:25:00,
2013-08-03 04:30:00,52.6,51.2,29.44,North,0,0.0,-999.0,95,0.00,,,-99.99,,2013-08-03 12:30:00,
2013-08-03 04:35:00,52.4,51.1,29.44,North,0,0.0,-999.0,95,0.00,,,-99.99,,2013-08-03 12:35:00,
2013-08-03 04:40:00,52.6,51.3,29.44,North,0,0.0,-999.0,95,0.00,,,-99.99,,2013-08-03 12:40:00,
2013-08-03 04:45:00,52.6,51.3,29.44,North,0,0.0,-999.0,95,0.00,,,-99.99,,2013-08-03 12:45:00,
2013-08-03 04:50:00,52.6,51.3,29.44,North,0,0.0,-999.0,95,0.00,,,-99.99,,2013-08-03 12:50:00,
2013-08-03 04:55:00,52.6,51.4,29.44,North,0,0.0,-999.0,95,0.00,,,-99.99,,2013-08-03 12:55:00,
2013-08-03 05:00:00,52.5,51.2,29.43,North,0,0.0,-999.0,95,0.00,,,-99.99,,2013-08-03 13:00:00,
2013-08-03 05:05:00,52.4,51.2,29.43,North,0,0.0,-999.0,95,0.00,,,-99.99,,2013-08-03 13:05:00,
2013-08-03 05:10:00,52.5,51.2,29.43,North,0,0.0,-999.0,95,0.01,,,-99.99,,2013-08-03 13:10:00,
2013-08-03 05:15:00,52.6,51.2,29.43,North,0,0.0,-999.0,95,0.01,,,-99.99,,2013-08-03 13:15:00,
2013-08-03 05:20:00,52.4,51.0,29.43,North,0,0.0,-999.0,95,0.01,,,-99.99,,2013-08-03 13:20:00,
2013-08-03 05:25:00,52.4,51.1,29.43,North,0,0.0,-999.0,95,0.01,,,-99.99,,2013-08-03 13:25:00,
2013-08-03 05:30:00,52.4,51.1,29.43,North,0,0.0,-999.0,95,0.01,,,-99.99,,2013-08-03 13:30:00,
2013-08-03 05:35:00,52.4,51.1,29.43,North,0,0.0,-999.0,94,0.01,,,-99.99,,2013-08-03 13:35:00,
2013-08-03 05:40:00,52.4,51.2,29.43,North,0,0.0,-999.0,95,0.02,,,-99.99,,2013-08-03 13:40:00,
2013-08-03 05:45:00,52.4,51.1,29.43,North,0,0.0,-999.0,95,0.02,,,-99.99,,2013-08-03 13:45:00,
2013-08-03 05:50:00,52.4,51.1,29.43,North,0,0.0,-999.0,95,0.02,,,-99.99,,2013-08-03 13:50:00,
2013-08-03 05:55:00,52.4,51.2,29.43,North,0,0.0,-999.0,95,0.03,,,-99.99,,2013-08-03 13:55:00,
2013-08-03 06:00:00,52.4,51.2,29.46,North,0,0.0,-999.0,95,0.00,,,-99.99,,2013-08-03 14:00:00,
2013-08-03 06:05:00,52.2,51.0,29.46,North,0,0.0,-999.0,95,0.01,,,-99.99,,2013-08-03 14:05:00,
2013-08-03 06:10:00,52.2,51.1,29.46,North,0,0.0,-999.0,95,0.01,,,-99.99,,2013-08-03 14:10:00,
2013-08-03 06:15:00,52.1,51.0,29.46,North,0,0.0,-999.0,95,0.01,,,-99.99,,2013-08-03 14:15:00,
2013-08-03 06:20:00,52.2,51.1,29.46,North,0,0.0,-999.0,95,0.02,,,-99.99,,2013-08-03 14:20:00,
2013-08-03 06:25:00,52.3,51.2,29.46,North,0,0.0,-999.0,95,0.02,,,-99.99,,2013-08-03 14:25:00,
2013-08-03 06:30:00,52.2,51.0,29.46,North,0,0.0,-999.0,95,0.02,,,-99.99,,2013-08-03 14:30:00,
2013-08-03 06:35:00,52.4,51.3,29.46,North,0,0.0,-999.0,96,0.02,,,-99.99,,2013-08-03 14:35:00,
2013-08-03 06:40:00,52.4,51.3,29.46,North,0,0.0,-999.0,96,0.03,,,-99.99,,2013-08-03 14:40:00,
2013-08-03 06:45:00,52.3,51.1,29.46,North,0,0.0,-999.0,95,0.03,,,-99.99,,2013-08-03 14:45:00,
2013-08-03 06:51:00,52.4,51.3,29.46,North,0,0.0,-999.0,95,0.03,,,-99.99,,2013-08-03 14:51:00,
2013-08-03 06:56:00,52.1,51.0,29.46,North,0,0.0,-999.0,95,0.04,,,-99.99,,2013-08-03 14:56:00,
2013-08-03 07:01:00,52.1,51.1,29.47,North,0,0.0,-999.0,96,0.00,,,-99.99,,2013-08-03 15:01:00,
2013-08-03 07:06:00,52.3,51.3,29.47,North,0,0.0,-999.0,96,0.00,,,-99.99,,2013-08-03 15:06:00,
2013-08-03 07:11:00,52.4,51.4,29.47,North,0,0.0,-999.0,96,0.00,,,-99.99,,2013-08-03 15:11:00,
2013-08-03 07:16:00,52.4,51.3,29.47,North,0,0.0,-999.0,96,0.00,,,-99.99,,2013-08-03 15:16:00,
2013-08-03 07:21:00,52.6,51.7,29.47,North,0,0.0,-999.0,96,0.00,,,-99.99,,2013-08-03 15:21:00,
2013-08-03 07:26:00,52.6,51.5,29.47,North,0,0.0,-999.0,96,0.00,,,-99.99,,2013-08-03 15:26:00,
2013-08-03 07:31:00,52.6,51.6,29.47,North,0,0.0,-999.0,96,0.01,,,-99.99,,2013-08-03 15:31:00,
2013-08-03 07:36:00,52.7,51.6,29.47,North,0,0.0,-999.0,95,0.01,,,-99.99,,2013-08-03 15:36:00,
2013-08-03 07:41:00,52.6,51.4,29.47,North,0,0.0,-999.0,95,0.01,,,-99.99,,2013-08-03 15:41:00,
2013-08-03 07:46:00,52.7,51.6,29.47,North,0,0.0,-999.0,95,0.01,,,-99.99,,2013-08-03 15:46:00,
2013-08-03 07:51:00,52.6,51.5,29.47,North,0,0.0,-999.0,96,0.01,,,-99.99,,2013-08-03 15:51:00,
2013-08-03 07:56:00,52.8,51.7,29.47,North,0,0.0,-999.0,96,0.01,,,-99.99,,2013-08-03 15:56:00,
2013-08-03 08:01:00,52.7,51.6,29.48,North,0,0.0,-999.0,96,0.00,,,-99.99,,2013-08-03 16:01:00,
2013-08-03 08:06:00,53.0,51.9,29.48,North,0,0.0,-999.0,96,0.00,,,-99.99,,2013-08-03 16:06:00,
2013-08-03 08:11:00,53.1,52.0,29.48,North,0,0.0,-999.0,96,0.00,,,-99.99,,2013-08-03 16:11:00,
2013-08-03 08:16:00,53.1,52.0,29.48,North,0,0.0,-999.0,95,0.00,,,-99.99,,2013-08-03 16:16:00,
2013-08-03 08:22:00,53.2,52.0,29.48,North,0,0.0,-999.0,95,0.00,,,-99.99,,2013-08-03 16:22:00,
2013-08-03 08:27:00,53.4,52.2,29.48,North,0,0.0,-999.0,95,0.00,,,-99.99,,2013-08-03 16:27:00,
2013-08-03 08:32:00,53.5,52.2,29.48,North,0,0.0,-999.0,95,0.01,,,-99.99,,2013-08-03 16:32:00,
2013-08-03 08:37:00,53.4,52.1,29.48,North,0,0.0,-999.0,95,0.01,,,-99.99,,2013-08-03 16:37:00,
2013-08-03 08:42:00,53.5,52.2,29.48,North,0,0.0,-999.0,95,0.01,,,-99.99,,2013-08-03 16:42:00,
2013-08-03 08:47:00,53.7,52.3,29.48,North,0,0.0,-999.0,94,0.01,,,-99.99,,2013-08-03 16:47:00,
2013-08-03 08:52:00,53.5,51.8,29.48,North,0,0.0,-999.0,94,0.01,,,-99.99,,2013-08-03 16:52:00,
2013-08-03 08:57:00,53.5,51.8,29.48,North,0,0.0,-999.0,93,0.01,,,-99.99,,2013-08-03 16:57:00,
2013-08-03 09:03:00,53.5,51.8,29.50,North,0,0.0,-999.0,93,0.00,,,-99.99,,2013-08-03 17:03:00,
2013-08-03 09:08:00,53.5,51.8,29.50,North,0,0.0,-999.0,93,0.00,,,-99.99,,2013-08-03 17:08:00,
2013-08-03 09:13:00,53.5,51.7,29.50,North,0,0.0,-999.0,93,0.00,,,-99.99,,2013-08-03 17:13:00,
2013-08-03 09:18:00,53.8,52.0,29.50,North,0,0.0,-999.0,93,0.00,,,-99.99,,2013-08-03 17:18:00,
2013-08-03 09:23:00,53.8,52.0,29.50,North,0,0.0,-999.0,93,0.00,,,-99.99,,2013-08-03 17:23:00,
2013-08-03 09:28:00,54.0,52.0,29.50,North,0,0.0,-999.0,92,0.00,,,-99.99,,2013-08-03 17:28:00,
2013-08-03 09:33:00,53.8,51.8,29.50,North,0,0.0,-999.0,92,0.00,,,-99.99,,2013-08-03 17:33:00,
2013-08-03 09:38:00,53.8,51.7,29.50,North,0,0.0,-999.0,92,0.00,,,-99.99,,2013-08-03 17:38:00,
2013-08-03 09:43:00,53.7,51.7,29.50,North,0,0.0,-999.0,93,0.00,,,-99.99,,2013-08-03 17:43:00,
2013-08-03 09:48:00,53.7,51.9,29.50,North,0,0.0,-999.0,93,0.00,,,-99.99,,2013-08-03 17:48:00,
2013-08-03 09:53:00,53.8,51.9,29.50,North,0,0.0,-999.0,93,0.01,,,-99.99,,2013-08-03 17:53:00,
2013-08-03 10:00:00,53.6,51.7,29.55,North,0,0.0,-999.0,93,0.00,,,-99.99,,2013-08-03 18:00:00,
2013-08-03 10:05:00,53.6,51.8,29.55,North,0,0.0,-999.0,93,0.00,,,-99.99,,2013-08-03 18:05:00,
2013-08-03 10:10:00,54.1,52.1,29.55,North,0,0.0,-999.0,92,0.00,,,-99.99,,2013-08-03 18:10:00,
2013-08-03 10:15:00,53.8,51.7,29.55,North,0,0.0,-999.0,92,0.00,,,-99.99,,2013-08-03 18:15:00,
2013-08-03 10:20:00,53.8,51.6,29.55,North,0,0.0,-999.0,92,0.00,,,-99.99,,2013-08-03 18:20:00,
2013-08-03 10:25:00,54.0,51.8,29.55,North,0,0.0,-999.0,92,0.00,,,-99.99,,2013-08-03 18:25:00,
2013-08-03 10:30:00,54.0,51.8,29.55,North,0,0.0,-999.0,92,0.00,,,-99.99,,2013-08-03 18:30:00,
2013-08-03 10:35:00,53.9,51.7,29.55,North,0,0.0,-999.0,92,0.00,,,-99.99,,2013-08-03 18:35:00,
2013-08-03 10:41:00,54.0,51.6,29.55,North,0,0.0,-999.0,91,0.00,,,-99.99,,2013-08-03 18:41:00,
2013-08-03 10:46:00,54.0,51.6,29.55,North,0,0.0,-999.0,91,0.00,,,-99.99,,2013-08-03 18:46:00,
2013-08-03 10:51:00,54.0,51.7,29.55,North,0,0.0,-999.0,91,0.00,,,-99.99,,2013-08-03 18:51:00,
2013-08-03 10:56:00,53.9,51.4,29.55,North,0,0.0,-999.0,91,0.00,,,-99.99,,2013-08-03 18:56:00,
2013-08-03 11:01:00,54.0,51.6,29.58,North,0,0.0,-999.0,91,0.00,,,-99.99,,2013-08-03 19:01:00,
2013-08-03 11:06:00,54.0,51.6,29.58,North,0,0.0,-999.0,91,0.00,,,-99.99,,2013-08-03 19:06:00,
2013-08-03 11:10:00,54.0,51.7,29.58,North,0,0.0,-999.0,91,0.00,,,-99.99,,2013-08-03 19:10:00,
2013-08-03 11:15:00,53.9,51.4,29.58,North,0,0.0,-999.0,91,0.00,,,-99.99,,2013-08-03 19:15:00,
2013-08-03 11:20:00,54.1,51.6,29.58,North,0,0.0,-999.0,91,0.00,,,-99.99,,2013-08-03 19:20:00,
2013-08-03 11:25:00,53.7,51.3,29.58,North,0,0.0,-999.0,91,0.00,,,-99.99,,2013-08-03 19:25:00,
2013-08-03 11:30:00,53.9,51.6,29.58,North,0,0.0,-999.0,91,0.00,,,-99.99,,2013-08-03 19:30:00,
2013-08-03 11:35:00,54.0,51.7,29.58,North,0,0.0,-999.0,91,0.00,,,-99.99,,2013-08-03 19:35:00,
2013-08-03 11:41:00,54.0,51.4,29.58,North,0,0.0,-999.0,90,0.00,,,-99.99,,2013-08-03 19:41:00,
2013-08-03 11:46:00,54.2,51.6,29.58,North,0,0.0,-999.0,90,0.00,,,-99.99,,2013-08-03 19:46:00,
2013-08-03 11:51:00,54.3,51.6,29.58,North,0,0.0,-999.0,90,0.00,,,-99.99,,2013-08-03 19:51:00,
2013-08-03 11:56:00,54.5,51.8,29.58,North,0,0.0,-999.0,90,0.00,,,-99.99,,2013-08-03 19:56:00,
2013-08-03 12:01:00,54.3,51.7,29.60,North,0,0.0,-999.0,90,0.00,,,-99.99,,2013-08-03 20:01:00,
2013-08-03 12:06:00,54.3,51.8,29.60,North,0,0.0,-999.0,90,0.00,,,-99.99,,2013-08-03 20:06:00,
2013-08-03 12:11:00,54.7,51.8,29.60,North,0,0.0,-999.0,90,0.00,,,-99.99,,2013-08-03 20:11:00,
2013-08-03 12:16:00,54.5,51.6,29.60,North,0,0.0,-999.0,89,0.00,,,-99.99,,2013-08-03 20:16:00,
2013-08-03 12:21:00,54.4,51.7,29.60,North,0,0.0,-999.0,90,0.00,,,-99.99,,2013-08-03 20:21:00,
2013-08-03 12:26:00,54.5,51.7,29.60,North,0,0.0,-999.0,90,0.00,,,-99.99,,2013-08-03 20:26:00,
2013-08-03 12:31:00,54.7,51.8,29.60,North,0,0.0,-999.0,89,0.01,,,-99.99,,2013-08-03 20:31:00,
2013-08-03 12:35:00,54.8,51.8,29.60,North,0,0.0,-999.0,89,0.01,,,-99.99,,2013-08-03 20:35:00,
2013-08-03 12:41:00,54.7,51.6,29.60,North,0,0.0,-999.0,89,0.01,,,-99.99,,2013-08-03 20:41:00,
2013-08-03 12:45:00,54.6,51.7,29.60,North,0,0.0,-999.0,89,0.01,,,-99.99,,2013-08-03 20:45:00,
2013-08-03 12:51:00,54.8,52.1,29.60,North,0,0.0,-999.0,90,0.01,,,-99.99,,2013-08-03 20:51:00,
2013-08-03 12:56:00,54.7,51.9,29.60,North,0,0.0,-999.0,90,0.01,,,-99.99,,2013-08-03 20:56:00,
2013-08-03 13:00:00,54.9,52.0,29.65,North,0,0.0,-999.0,89,0.00,,,-99.99,,2013-08-03 21:00:00,
2013-08-03 13:06:00,55.0,52.0,29.65,North,0,0.0,-999.0,89,0.00,,,-99.99,,2013-08-03 21:06:00,
2013-08-03 13:12:00,55.0,52.0,29.65,North,0,0.0,-999.0,89,0.00,,,-99.99,,2013-08-03 21:12:00,
2013-08-03 13:17:00,55.0,52.0,29.65,North,0,0.0,-999.0,89,0.00,,,-99.99,,2013-08-03 21:17:00,
2013-08-03 13:22:00,55.0,51.9,29.65,North,0,0.0,-999.0,89,0.00,,,-99.99,,2013-08-03 21:22:00,
2013-08-03 13:28:00,55.1,52.0,29.65,North,0,0.0,-999.0,89,0.00,,,-99.99,,2013-08-03 21:28:00,
2013-08-03 13:32:00,54.9,51.9,29.65,North,0,0.0,-999.0,89,0.00,,,-99.99,,2013-08-03 21:32:00,
2013-08-03 13:38:00,55.1,52.2,29.65,North,0,0.0,-999.0,90,0.00,,,-99.99,,2013-08-03 21:38:00,
2013-08-03 13:42:00,54.9,52.2,29.65,North,0,0.0,-999.0,90,0.00,,,-99.99,,2013-08-03 21:42:00,
2013-08-03 13:48:00,55.1,52.1,29.65,North,0,0.0,-999.0,89,0.00,,,-99.99,,2013-08-03 21:48:00,
2013-08-03 13:53:00,55.4,52.2,29.65,North,0,0.0,-999.0,88,0.00,,,-99.99,,2013-08-03 21:53:00,
2013-08-03 13:58:00,55.4,52.4,29.65,North,0,0.0,-999.0,89,0.00,,,-99.99,,2013-08-03 21:58:00,
2013-08-03 14:03:00,55.6,52.3,29.67,North,0,0.0,-999.0,88,0.00,,,-99.99,,2013-08-03 22:03:00,
2013-08-03 14:08:00,55.8,52.1,29.67,North,0,0.0,-999.0,87,0.00,,,-99.99,,2013-08-03 22:08:00,
2013-08-03 14:13:00,55.7,52.2,29.67,North,0,0.0,-999.0,88,0.00,,,-99.99,,2013-08-03 22:13:00,
2013-08-03 14:18:00,56.0,52.5,29.67,North,0,0.0,-999.0,88,0.00,,,-99.99,,2013-08-03 22:18:00,
2013-08-03 14:24:00,56.1,52.8,29.67,North,0,0.0,-999.0,88,0.00,,,-99.99,,2013-08-03 22:24:00,
2013-08-03 14:28:00,55.7,52.6,29.67,North,0,0.0,-999.0,89,0.00,,,-99.99,,2013-08-03 22:28:00,
2013-08-03 14:34:00,55.8,52.5,29.67,North,0,0.0,-999.0,88,0.00,,,-99.99,,2013-08-03 22:34:00,
2013-08-03 14:39:00,55.8,52.5,29.67,North,0,0.0,-999.0,88,0.00,,,-99.99,,2013-08-03 22:39:00,
2013-08-03 14:44:00,55.6,52.2,29.67,North,0,0.0,-999.0,88,0.00,,,-99.99,,2013-08-03 22:44:00,
2013-08-03 14:49:00,56.1,52.6,29.67,North,0,0.0,-999.0,88,0.00,,,-99.99,,2013-08-03 22:49:00,
2013-08-03 14:54:00,56.4,52.7,29.67,North,0,0.0,-999.0,87,0.00,,,-99.99,,2013-08-03 22:54:00,
2013-08-03 14:59:00,56.6,52.7,29.67,North,0,0.0,-999.0,86,0.00,,,-99.99,,2013-08-03 22:59:00,
2013-08-03 15:04:00,56.6,52.8,29.70,North,0,0.0,-999.0,87,0.00,,,-99.99,,2013-08-03 23:04:00,
2013-08-03 15:09:00,56.8,52.8,29.70,North,0,0.0,-999.0,86,0.00,,,-99.99,,2013-08-03 23:09:00,
2013-08-03 15:13:00,56.5,52.4,29.70,North,0,0.0,-999.0,86,0.00,,,-99.99,,2013-08-03 23:13:00,
2013-08-03 15:19:00,57.0,52.6,29.70,North,0,0.0,-999.0,85,0.00,,,-99.99,,2013-08-03 23:19:00,
2013-08-03 15:24:00,56.9,52.7,29.70,North,0,0.0,-999.0,85,0.00,,,-99.99,,2013-08-03 23:24:00,
2013-08-03 15:28:00,57.1,52.7,29.70,North,0,0.0,-999.0,84,0.00,,,-99.99,,2013-08-03 23:28:00,
2013-08-03 15:35:00,57.6,53.1,29.70,North,0,0.0,-999.0,84,0.00,,,-99.99,,2013-08-03 23:35:00,
2013-08-03 15:40:00,57.2,52.6,29.70,North,0,0.0,-999.0,84,0.00,,,-99.99,,2013-08-03 23:40:00,
2013-08-03 15:44:00,56.7,52.7,29.70,North,0,0.0,-999.0,86,0.00,,,-99.99,,2013-08-03 23:44:00,
2013-08-03 15:46:00,56.8,52.8,29.70,North,0,0.0,-999.0,86,0.00,,,-99.99,,2013-08-03 23:46:00,
2013-08-03 15:51:00,57.1,52.9,29.70,North,0,0.0,-999.0,85,0.00,,,-99.99,,2013-08-03 23:51:00,
2013-08-03 15:56:00,57.8,53.2,29.70,North,0,0.0,-999.0,84,0.00,,,-99.99,,2013-08-03 23:56:00,
2013-08-03 16:01:00,57.7,52.9,29.69,North,0,0.0,-999.0,84,0.00,,,-99.99,,2013-08-04 00:01:00,
2013-08-03 16:06:00,57.6,52.9,29.69,North,0,0.0,-999.0,84,0.00,,,-99.99,,2013-08-04 00:06:00,
2013-08-03 16:11:00,57.2,52.5,29.69,North,0,0.0,-999.0,84,0.00,,,-99.99,,2013-08-04 00:11:00,
2013-08-03 16:18:00,56.8,52.5,29.69,North,0,0.0,-999.0,85,0.00,,,-99.99,,2013-08-04 00:18:00,
2013-08-03 16:23:00,56.7,52.7,29.69,North,0,0.0,-999.0,86,0.00,,,-99.99,,2013-08-04 00:23:00,
2013-08-03 16:28:00,56.2,52.4,29.69,North,0,0.0,-999.0,87,0.00,,,-99.99,,2013-08-04 00:28:00,
2013-08-03 16:33:00,56.4,52.5,29.69,North,0,0.0,-999.0,86,0.00,,,-99.99,,2013-08-04 00:33:00,
2013-08-03 16:38:00,56.5,52.6,29.69,North,0,0.0,-999.0,86,0.00,,,-99.99,,2013-08-04 00:38:00,
2013-08-03 16:43:00,56.7,52.5,29.69,North,0,0.0,-999.0,85,0.00,,,-99.99,,2013-08-04 00:43:00,
2013-08-03 16:49:00,56.7,52.5,29.69,North,0,0.0,-999.0,85,0.00,,,-99.99,,2013-08-04 00:49:00,
2013-08-03 16:55:00,56.6,52.5,29.69,North,0,0.0,-999.0,85,0.00,,,-99.99,,2013-08-04 00:55:00,
2013-08-03 17:00:00,56.2,52.0,29.71,North,0,0.0,-999.0,85,0.00,,,-99.99,,2013-08-04 01:00:00,
2013-08-03 17:05:00,56.0,52.4,29.71,North,0,0.0,-999.0,87,0.00,,,-99.99,,2013-08-04 01:05:00,
2013-08-03 17:10:00,56.0,52.4,29.71,North,0,0.0,-999.0,87,0.00,,,-99.99,,2013-08-04 01:10:00,
2013-08-03 17:15:00,55.9,52.4,29.71,North,0,0.0,-999.0,88,0.00,,,-99.99,,2013-08-04 01:15:00,
2013-08-03 17:21:00,56.0,52.5,29.71,North,0,0.0,-999.0,87,0.00,,,-99.99,,2013-08-04 01:21:00,
2013-08-03 17:26:00,56.0,52.3,29.71,North,0,0.0,-999.0,87,0.00,,,-99.99,,2013-08-04 01:26:00,
2013-08-03 17:30:00,55.8,52.4,29.71,North,0,0.0,-999.0,88,0.00,,,-99.99,,2013-08-04 01:30:00,
2013-08-03 17:36:00,56.0,52.3,29.71,North,0,0.0,-999.0,87,0.00,,,-99.99,,2013-08-04 01:36:00,
2013-08-03 17:41:00,56.1,52.3,29.71,North,0,0.0,-999.0,87,0.00,,,-99.99,,2013-08-04 01:41:00,
2013-08-03 17:46:00,56.4,52.4,29.71,North,0,0.0,-999.0,86,0.00,,,-99.99,,2013-08-04 01:46:00,
2013-08-03 17:51:00,56.7,52.5,29.71,North,0,0.0,-999.0,85,0.00,,,-99.99,,2013-08-04 01:51:00,
2013-08-03 17:56:00,56.9,52.6,29.71,North,0,0.0,-999.0,85,0.00,,,-99.99,,2013-08-04 01:56:00,
2013-08-03 18:01:00,56.8,52.5,29.72,North,0,0.0,-999.0,85,0.00,,,-99.99,,2013-08-04 02:01:00,
2013-08-03 18:06:00,56.8,52.5,29.72,North,0,0.0,-999.0,85,0.00,,,-99.99,,2013-08-04 02:06:00,
2013-08-03 18:11:00,57.0,52.3,29.72,North,0,0.0,-999.0,84,0.00,,,-99.99,,2013-08-04 02:11:00,
2013-08-03 18:15:00,57.0,52.8,29.72,North,0,0.0,-999.0,85,0.00,,,-99.99,,2013-08-04 02:15:00,
2013-08-03 18:21:00,56.7,52.2,29.72,North,0,0.0,-999.0,84,0.00,,,-99.99,,2013-08-04 02:21:00,
2013-08-03 18:26:00,56.6,52.3,29.72,North,0,0.0,-999.0,85,0.00,,,-99.99,,2013-08-04 02:26:00,
2013-08-03 18:31:00,56.7,52.1,29.72,North,0,0.0,-999.0,84,0.00,,,-99.99,,2013-08-04 02:31:00,
2013-08-03 18:36:00,56.7,52.3,29.72,North,0,0.0,-999.0,84,0.00,,,-99.99,,2013-08-04 02:36:00,
2013-08-03 18:41:00,56.6,52.1,29.72,North,0,0.0,-999.0,84,0.00,,,-99.99,,2013-08-04 02:41:00,
2013-08-03 18:46:00,56.0,52.3,29.72,North,0,0.0,-999.0,87,0.00,,,-99.99,,2013-08-04 02:46:00,
2013-08-03 18:51:00,56.1,52.1,29.72,North,0,0.0,-999.0,86,0.00,,,-99.99,,2013-08-04 02:51:00,
2013-08-03 18:56:00,56.0,52.0,29.72,North,0,0.0,-999.0,86,0.00,,,-99.99,,2013-08-04 02:56:00,
2013-08-03 19:01:00,55.9,52.0,29.74,North,0,0.0,-999.0,86,0.00,,,-99.99,,2013-08-04 03:01:00,
2013-08-03 19:06:00,55.9,51.9,29.74,North,0,0.0,-999.0,86,0.00,,,-99.99,,2013-08-04 03:06:00,
2013-08-03 19:11:00,56.0,52.0,29.74,North,0,0.0,-999.0,86,0.00,,,-99.99,,2013-08-04 03:11:00,
2013-08-03 19:15:00,56.2,52.1,29.74,North,0,0.0,-999.0,86,0.00,,,-99.99,,2013-08-04 03:15:00,
2013-08-03 19:21:00,56.2,52.1,29.74,North,0,0.0,-999.0,85,0.00,,,-99.99,,2013-08-04 03:21:00,
2013-08-03 19:26:00,56.0,51.9,29.74,North,0,0.0,-999.0,85,0.00,,,-99.99,,2013-08-04 03:26:00,
2013-08-03 19:31:00,55.6,51.5,29.74,North,0,0.0,-999.0,86,0.00,,,-99.99,,2013-08-04 03:31:00,
2013-08-03 19:36:00,55.5,51.8,29.74,North,0,0.0,-999.0,87,0.00,,,-99.99,,2013-08-04 03:36:00,
2013-08-03 19:40:00,55.6,51.7,29.74,North,0,0.0,-999.0,86,0.00,,,-99.99,,2013-08-04 03:40:00,
2013-08-03 19:46:00,55.7,52.0,29.74,North,0,0.0,-999.0,87,0.00,,,-99.99,,2013-08-04 03:46:00,
2013-08-03 19:51:00,55.4,51.9,29.74,North,0,0.0,-999.0,87,0.00,,,-99.99,,2013-08-04 03:51:00,
2013-08-03 19:55:00,55.2,51.7,29.74,North,0,0.0,-999.0,87,0.00,,,-99.99,,2013-08-04 03:55:00,
2013-08-03 20:01:00,55.2,51.7,29.75,North,0,0.0,-999.0,88,0.00,,,-99.99,,2013-08-04 04:01:00,
2013-08-03 20:03:00,55.1,51.6,29.75,North,0,0.0,-999.0,87,0.00,,,-99.99,,2013-08-04 04:03:00,
2013-08-03 20:04:00,55.2,51.9,29.75,North,0,0.0,-999.0,88,0.00,,,-99.99,,2013-08-04 04:04:00,
2013-08-03 20:05:00,55.3,52.1,29.75,North,0,0.0,-999.0,88,0.00,,,-99.99,,2013-08-04 04:05:00,
2013-08-03 20:10:00,55.2,51.8,29.75,North,0,0.0,-999.0,88,0.00,,,-99.99,,2013-08-04 04:10:00,
2013-08-03 20:15:00,55.0,51.6,29.75,North,0,0.0,-999.0,88,0.00,,,-99.99,,2013-08-04 04:15:00,
2013-08-03 20:20:00,55.2,51.8,29.75,North,0,0.0,-999.0,88,0.00,,,-99.99,,2013-08-04 04:20:00,
2013-08-03 20:25:00,55.2,51.8,29.75,North,0,0.0,-999.0,88,0.00,,,-99.99,,2013-08-04 04:25:00,
2013-08-03 20:26:00,55.1,51.7,29.75,North,0,0.0,-999.0,88,0.00,,,-99.99,,2013-08-04 04:26:00,
2013-08-03 20:32:00,55.1,51.8,29.75,North,0,0.0,-999.0,88,0.00,,,-99.99,,2013-08-04 04:32:00,
2013-08-03 20:37:00,55.1,51.7,29.75,North,0,0.0,-999.0,88,0.00,,,-99.99,,2013-08-04 04:37:00,
2013-08-03 20:42:00,54.9,51.7,29.75,North,0,0.0,-999.0,88,0.00,,,-99.99,,2013-08-04 04:42:00,
2013-08-03 20:46:00,54.8,51.7,29.75,North,0,0.0,-999.0,89,0.00,,,-99.99,,2013-08-04 04:46:00,
2013-08-03 20:52:00,55.0,51.8,29.75,North,0,0.0,-999.0,89,0.00,,,-99.99,,2013-08-04 04:52:00,
2013-08-03 20:57:00,54.8,51.7,29.75,North,0,0.0,-999.0,89,0.00,,,-99.99,,2013-08-04 04:57:00,
2013-08-03 21:02:00,55.1,51.9,29.76,North,0,0.0,-999.0,88,0.00,,,-99.99,,2013-08-04 05:02:00,
2013-08-03 21:07:00,55.1,51.8,29.76,North,0,0.0,-999.0,88,0.00,,,-99.99,,2013-08-04 05:07:00,
2013-08-03 21:13:00,55.0,52.0,29.76,North,0,0.0,-999.0,89,0.00,,,-99.99,,2013-08-04 05:13:00,
2013-08-03 21:18:00,55.2,52.0,29.76,North,0,0.0,-999.0,89,0.00,,,-99.99,,2013-08-04 05:18:00,
2013-08-03 21:22:00,54.8,51.7,29.76,North,0,0.0,-999.0,89,0.00,,,-99.99,,2013-08-04 05:22:00,
2013-08-03 21:27:00,55.0,52.0,29.76,North,0,0.0,-999.0,89,0.00,,,-99.99,,2013-08-04 05:27:00,
2013-08-03 21:33:00,54.8,51.7,29.76,North,0,0.0,-999.0,89,0.00,,,-99.99,,2013-08-04 05:33:00,
2013-08-03 21:38:00,54.8,51.9,29.76,North,0,0.0,-999.0,89,0.00,,,-99.99,,2013-08-04 05:38:00,
2013-08-03 21:43:00,54.5,51.7,29.76,North,0,0.0,-999.0,90,0.00,,,-99.99,,2013-08-04 05:43:00,
2013-08-03 21:48:00,54.5,51.9,29.76,North,0,0.0,-999.0,90,0.00,,,-99.99,,2013-08-04 05:48:00,
2013-08-03 21:53:00,54.6,51.7,29.76,North,0,0.0,-999.0,89,0.00,,,-99.99,,2013-08-04 05:53:00,
2013-08-03 21:58:00,54.5,51.7,29.76,North,0,0.0,-999.0,90,0.00,,,-99.99,,2013-08-04 05:58:00,
2013-08-03 22:03:00,54.6,52.0,29.77,North,0,0.0,-999.0,90,0.00,,,-99.99,,2013-08-04 06:03:00,
2013-08-03 22:08:00,54.6,52.0,29.77,North,0,0.0,-999.0,90,0.00,,,-99.99,,2013-08-04 06:08:00,
2013-08-03 22:12:00,54.6,52.0,29.77,North,0,0.0,-999.0,90,0.00,,,-99.99,,2013-08-04 06:12:00,
2013-08-03 22:18:00,54.5,51.8,29.77,North,0,0.0,-999.0,90,0.00,,,-99.99,,2013-08-04 06:18:00,
2013-08-03 22:22:00,54.5,51.8,29.77,North,0,0.0,-999.0,90,0.00,,,-99.99,,2013-08-04 06:22:00,
2013-08-03 22:27:00,54.4,51.9,29.77,North,0,0.0,-999.0,91,0.00,,,-99.99,,2013-08-04 06:27:00,
2013-08-03 22:33:00,54.4,52.0,29.77,North,0,0.0,-999.0,91,0.00,,,-99.99,,2013-08-04 06:33:00,
2013-08-03 22:38:00,54.5,51.9,29.77,North,0,0.0,-999.0,90,0.00,,,-99.99,,2013-08-04 06:38:00,
2013-08-03 22:43:00,54.1,51.6,29.77,North,0,0.0,-999.0,91,0.00,,,-99.99,,2013-08-04 06:43:00,
2013-08-03 22:47:00,54.0,51.7,29.77,North,0,0.0,-999.0,91,0.00,,,-99.99,,2013-08-04 06:47:00,
2013-08-03 22:53:00,53.8,51.5,29.77,North,0,0.0,-999.0,92,0.00,,,-99.99,,2013-08-04 06:53:00,
2013-08-03 22:58:00,54.1,52.1,29.77,North,0,0.0,-999.0,92,0.00,,,-99.99,,2013-08-04 06:58:00,
2013-08-03 23:03:00,54.0,51.7,29.78,North,0,0.0,-999.0,92,0.00,,,-99.99,,2013-08-04 07:03:00,
2013-08-03 23:08:00,53.9,51.8,29.78,North,0,0.0,-999.0,92,0.00,,,-99.99,,2013-08-04 07:08:00,
2013-08-03 23:13:00,53.9,51.8,29.78,North,0,0.0,-999.0,92,0.00,,,-99.99,,2013-08-04 07:13:00,
2013-08-03 23:18:00,54.2,52.0,29.78,North,0,0.0,-999.0,92,0.00,,,-99.99,,2013-08-04 07:18:00,
2013-08-03 23:23:00,54.1,51.8,29.78,North,0,0.0,-999.0,91,0.00,,,-99.99,,2013-08-04 07:23:00,
2013-08-03 23:28:00,54.0,51.6,29.78,North,0,0.0,-999.0,91,0.00,,,-99.99,,2013-08-04 07:28:00,
2013-08-03 23:33:00,54.2,51.8,29.78,North,0,0.0,-999.0,91,0.00,,,-99.99,,2013-08-04 07:33:00,
2013-08-03 23:38:00,54.3,52.0,29.78,North,0,0.0,-999.0,91,0.00,,,-99.99,,2013-08-04 07:38:00,
2013-08-03 23:42:00,54.5,52.1,29.78,North,0,0.0,-999.0,91,0.00,,,-99.99,,2013-08-04 07:42:00,
2013-08-03 23:48:00,54.5,51.9,29.78,North,0,0.0,-999.0,91,0.00,,,-99.99,,2013-08-04 07:48:00,
2013-08-03 23:53:00,54.3,51.7,29.78,North,0,0.0,-999.0,91,0.00,,,-99.99,,2013-08-04 07:53:00,
2013-08-03 23:58:00,54.2,51.7,29.78,North,0,0.0,-999.0,91,0.00,,,-99.99,,2013-08-04 07:58:00,